createdAt,value
2023-12-03T00:00:33.742Z,25.13
2023-12-03T00:03:22.412Z,24.27
2023-12-03T00:06:10.810Z,24.95
2023-12-03T00:08:59.754Z,23.95
2023-12-03T00:11:47.782Z,23.52
2023-12-03T00:14:38.975Z,24.92
2023-12-03T00:17:27.126Z,24.70
2023-12-03T00:20:16.681Z,22.60
2023-12-03T00:23:04.996Z,23.73
2023-12-03T00:25:53.568Z,22.58
2023-12-03T00:28:41.657Z,25.52
2023-12-03T00:31:29.823Z,24.25
2023-12-03T00:34:18.693Z,24.98
2023-12-03T00:37:07.365Z,25.40
2023-12-03T00:39:55.561Z,27.25
2023-12-03T00:42:43.902Z,24.65
2023-12-03T00:45:32.257Z,24.95
2023-12-03T00:48:20.792Z,24.70
2023-12-03T00:51:09.072Z,26.15
2023-12-03T00:53:57.372Z,26.05
2023-12-03T00:56:45.487Z,25.90
2023-12-03T00:59:33.906Z,26.15
2023-12-03T01:02:22.400Z,24.25
2023-12-03T01:05:11.258Z,26.88
2023-12-03T01:07:59.532Z,23.30
2023-12-03T01:10:48.037Z,29.15
2023-12-03T01:13:36.705Z,25.92
2023-12-03T01:16:24.843Z,24.98
2023-12-03T01:19:12.835Z,26.45
2023-12-03T01:22:01.181Z,25.88
2023-12-03T01:24:50.138Z,24.10
2023-12-03T01:27:38.460Z,25.05
2023-12-03T01:30:27.069Z,25.23
2023-12-03T01:33:15.711Z,26.55
2023-12-03T01:36:04.086Z,25.10
2023-12-03T01:38:52.791Z,25.52
2023-12-03T01:41:50.364Z,24.48
2023-12-03T01:44:41.004Z,24.20
2023-12-03T01:47:35.068Z,22.67
2023-12-03T01:50:24.053Z,25.55
2023-12-03T01:53:12.596Z,23.15
2023-12-03T01:56:01.568Z,25.90
2023-12-03T01:59:24.626Z,24.67
2023-12-03T02:02:13.401Z,24.25
2023-12-03T02:05:01.976Z,25.58
2023-12-03T02:07:50.347Z,24.08
2023-12-03T02:10:38.308Z,25.15
2023-12-03T02:13:29.240Z,25.75
2023-12-03T02:16:20.632Z,22.05
2023-12-03T02:19:12.102Z,25.95
2023-12-03T02:22:02.579Z,25.25
2023-12-03T02:25:09.012Z,25.23
2023-12-03T02:27:57.400Z,24.45
2023-12-03T02:30:46.172Z,23.92
2023-12-03T02:33:34.540Z,26.50
2023-12-03T02:36:22.865Z,27.27
2023-12-03T02:39:17.950Z,25.58
2023-12-03T02:42:08.599Z,25.90
2023-12-03T02:44:57.218Z,26.75
2023-12-03T02:48:07.012Z,26.95
2023-12-03T02:50:55.603Z,28.33
2023-12-03T02:53:46.946Z,26.67
2023-12-03T02:56:35.043Z,27.70
2023-12-03T02:59:27.829Z,22.55
2023-12-03T03:02:16.206Z,27.83
2023-12-03T03:05:06.084Z,28.63
2023-12-03T03:07:55.331Z,27.83
2023-12-03T03:10:45.773Z,27.88
2023-12-03T03:13:33.917Z,24.20
2023-12-03T03:16:28.065Z,28.40
2023-12-03T03:19:16.650Z,26.02
2023-12-03T03:22:07.643Z,26.08
2023-12-03T03:24:56.064Z,28.00
2023-12-03T03:27:44.300Z,26.40
2023-12-03T03:30:32.697Z,27.27
2023-12-03T03:33:21.081Z,25.70
2023-12-03T03:36:09.970Z,28.25
2023-12-03T03:38:58.082Z,27.40
2023-12-03T03:41:48.813Z,27.13
2023-12-03T03:44:37.064Z,26.58
2023-12-03T03:47:35.944Z,24.58
2023-12-03T03:50:27.243Z,28.83
2023-12-03T03:53:15.933Z,27.98
2023-12-03T03:56:11.885Z,26.40
2023-12-03T03:59:00.077Z,27.52
2023-12-03T04:01:48.497Z,28.25
2023-12-03T04:04:36.662Z,26.48
2023-12-03T04:07:25.585Z,29.13
2023-12-03T04:10:13.944Z,27.67
2023-12-03T04:13:02.369Z,29.75
2023-12-03T04:15:50.484Z,27.52
2023-12-03T04:18:45.062Z,23.20
2023-12-03T04:21:39.228Z,30.98
2023-12-03T04:24:27.705Z,30.13
2023-12-03T04:27:15.950Z,26.33
2023-12-03T04:30:25.058Z,30.80
2023-12-03T04:33:17.007Z,27.55
2023-12-03T04:36:09.014Z,28.60
2023-12-03T04:39:02.710Z,29.20
2023-12-03T04:41:59.722Z,31.02
2023-12-03T04:44:48.221Z,29.77
2023-12-03T04:47:36.857Z,29.35
2023-12-03T04:50:27.917Z,29.20
2023-12-03T04:53:16.606Z,32.05
2023-12-03T04:56:05.609Z,31.50
2023-12-03T04:58:54.231Z,28.83
2023-12-03T05:01:45.517Z,28.73
2023-12-03T05:04:33.611Z,32.85
2023-12-03T05:07:24.042Z,31.02
2023-12-03T05:10:14.710Z,32.15
2023-12-03T05:13:15.498Z,31.00
2023-12-03T05:16:07.313Z,33.15
2023-12-03T05:18:55.761Z,31.73
2023-12-03T05:21:44.285Z,33.42
2023-12-03T05:24:35.292Z,32.65
2023-12-03T05:27:26.388Z,33.85
2023-12-03T05:30:19.292Z,34.60
2023-12-03T05:33:08.009Z,27.55
2023-12-03T05:35:59.593Z,35.55
2023-12-03T05:38:47.956Z,33.38
2023-12-03T05:41:41.246Z,33.92
2023-12-03T05:44:36.073Z,35.92
2023-12-03T05:47:42.038Z,35.60
2023-12-03T05:50:31.016Z,35.13
2023-12-03T05:53:20.695Z,33.00
2023-12-03T05:56:23.301Z,35.40
2023-12-03T06:02:40.256Z,37.03
2023-12-03T06:05:31.840Z,34.42
2023-12-03T06:08:20.367Z,36.85
2023-12-03T06:11:08.666Z,37.17
2023-12-03T06:13:57.600Z,38.35
2023-12-03T06:16:49.111Z,39.85
2023-12-03T06:19:44.985Z,30.27
2023-12-03T06:22:33.162Z,37.95
2023-12-03T06:25:27.272Z,35.95
2023-12-03T06:28:16.126Z,40.08
2023-12-03T06:31:10.278Z,38.20
2023-12-03T06:34:02.634Z,39.42
2023-12-03T06:37:02.972Z,37.63
2023-12-03T06:39:51.988Z,37.03
2023-12-03T06:42:48.670Z,38.08
2023-12-03T06:45:39.431Z,39.63
2023-12-03T06:48:54.812Z,37.38
2023-12-03T06:51:43.495Z,34.50
2023-12-03T06:58:29.774Z,38.50
2023-12-03T07:01:27.668Z,38.83
2023-12-03T07:05:05.477Z,33.35
2023-12-03T07:08:05.230Z,40.45
2023-12-03T07:10:59.636Z,39.45
2023-12-03T07:13:49.287Z,41.65
2023-12-03T07:16:37.498Z,37.70
2023-12-03T07:19:29.577Z,37.67
2023-12-03T07:29:20.876Z,36.17
2023-12-03T07:32:28.262Z,41.08
2023-12-03T07:39:28.735Z,40.22
2023-12-03T07:42:17.884Z,38.25
2023-12-03T07:45:23.107Z,38.83
2023-12-03T07:48:17.011Z,42.10
2023-12-03T07:51:14.534Z,40.03
2023-12-03T07:54:06.972Z,36.55
2023-12-03T07:56:58.265Z,40.25
2023-12-03T08:00:02.291Z,40.80
2023-12-03T08:02:55.654Z,39.28
2023-12-03T08:05:48.010Z,39.65
2023-12-03T08:08:43.385Z,35.72
2023-12-03T08:14:46.039Z,40.60
2023-12-03T08:17:36.865Z,36.40
2023-12-03T08:20:35.116Z,41.92
2023-12-03T08:23:46.418Z,39.78
2023-12-03T08:26:47.522Z,40.17
2023-12-03T08:29:50.562Z,37.38
2023-12-03T08:36:12.173Z,36.83
2023-12-03T08:42:09.028Z,39.25
2023-12-03T08:45:04.017Z,35.25
2023-12-03T08:51:22.544Z,40.40
2023-12-03T08:54:39.155Z,37.25
2023-12-03T09:00:52.629Z,37.55
2023-12-03T09:03:51.622Z,37.45
2023-12-03T09:06:42.356Z,36.92
2023-12-03T09:09:36.846Z,36.47
2023-12-03T09:12:38.561Z,36.17
2023-12-03T09:15:32.428Z,37.25
2023-12-03T09:18:21.073Z,34.05
2023-12-03T09:21:34.264Z,35.08
2023-12-03T09:24:40.133Z,33.55
2023-12-03T09:27:31.131Z,34.10
2023-12-03T09:30:20.367Z,33.33
2023-12-03T09:33:08.404Z,35.95
2023-12-03T09:36:02.033Z,35.28
2023-12-03T09:38:50.260Z,36.35
2023-12-03T09:41:53.301Z,31.75
2023-12-03T09:45:10.752Z,29.43
2023-12-03T09:48:03.508Z,34.42
2023-12-03T09:50:53.376Z,33.13
2023-12-03T09:53:47.789Z,32.92
2023-12-03T09:56:36.501Z,32.85
2023-12-03T09:59:25.600Z,34.95
2023-12-03T10:02:15.681Z,34.83
2023-12-03T10:05:04.512Z,31.73
2023-12-03T10:07:57.210Z,32.28
2023-12-03T10:11:01.743Z,31.02
2023-12-03T10:13:51.873Z,32.97
2023-12-03T10:16:40.959Z,28.50
2023-12-03T10:19:37.716Z,31.33
2023-12-03T10:22:42.458Z,30.67
2023-12-03T10:25:49.315Z,29.48
2023-12-03T10:28:38.092Z,29.20
2023-12-03T10:31:36.482Z,29.83
2023-12-03T10:35:05.832Z,28.95
2023-12-03T10:38:03.662Z,31.00
2023-12-03T10:41:01.579Z,31.92
2023-12-03T10:43:58.412Z,30.00
2023-12-03T10:46:47.152Z,30.33
2023-12-03T10:49:44.300Z,29.50
2023-12-03T10:52:38.919Z,31.25
2023-12-03T10:55:27.183Z,28.25
2023-12-03T10:58:20.696Z,30.42
2023-12-03T11:01:36.809Z,30.20
2023-12-03T11:05:11.893Z,29.55
2023-12-03T11:08:03.748Z,31.88
2023-12-03T11:10:56.928Z,31.88
2023-12-03T11:14:22.018Z,30.87
2023-12-03T11:17:32.004Z,29.73
2023-12-03T11:20:32.010Z,31.52
2023-12-03T11:23:53.456Z,30.67
2023-12-03T11:26:45.777Z,30.77
2023-12-03T11:29:52.432Z,28.77
2023-12-03T11:32:49.185Z,28.88
2023-12-03T11:35:38.352Z,29.25
2023-12-03T11:38:38.681Z,30.48
2023-12-03T11:41:44.006Z,29.83
2023-12-03T11:44:37.911Z,32.40
2023-12-03T11:50:18.886Z,29.83
2023-12-03T11:53:18.833Z,30.88
2023-12-03T11:56:19.453Z,29.58
2023-12-03T11:59:07.926Z,28.38
2023-12-03T12:01:56.258Z,27.70
2023-12-03T12:04:44.687Z,31.02
2023-12-03T12:07:42.197Z,29.13
2023-12-03T12:10:37.805Z,28.25
2023-12-03T12:13:27.572Z,32.25
2023-12-03T12:16:21.571Z,29.60
2023-12-03T12:22:09.160Z,28.75
2023-12-03T12:24:57.667Z,30.75
2023-12-03T12:27:55.076Z,29.20
2023-12-03T12:30:43.693Z,30.52
2023-12-03T12:33:34.670Z,31.80
2023-12-03T12:36:26.472Z,31.95
2023-12-03T12:39:33.811Z,31.70
2023-12-03T12:42:29.120Z,29.48
2023-12-03T12:45:33.142Z,32.15
2023-12-03T12:48:39.910Z,32.10
2023-12-03T12:51:30.629Z,32.20
2023-12-03T12:54:21.367Z,30.75
2023-12-03T12:57:11.988Z,31.40
2023-12-03T13:00:00.353Z,28.08
2023-12-03T13:02:50.691Z,32.17
2023-12-03T13:05:48.059Z,30.75
2023-12-03T13:08:38.454Z,30.60
2023-12-03T13:11:30.746Z,30.08
2023-12-03T13:14:23.852Z,30.25
2023-12-03T13:17:18.329Z,28.63
2023-12-03T13:23:01.873Z,29.23
2023-12-03T13:25:53.006Z,28.75
2023-12-03T13:28:44.640Z,29.80
2023-12-03T13:31:33.716Z,29.35
2023-12-03T13:34:22.126Z,29.30
2023-12-03T13:37:10.670Z,30.02
2023-12-03T13:40:13.094Z,28.83
2023-12-03T13:43:05.328Z,28.65
2023-12-03T13:45:54.150Z,27.45
2023-12-03T13:48:45.616Z,28.20
2023-12-03T13:51:37.457Z,27.80
2023-12-03T13:54:25.889Z,29.10
2023-12-03T13:57:14.469Z,27.77
2023-12-03T14:00:09.622Z,28.33
2023-12-03T14:02:59.898Z,25.73
2023-12-03T14:05:51.121Z,26.98
2023-12-03T14:08:46.608Z,26.17
2023-12-03T14:11:35.068Z,27.75
2023-12-03T14:14:23.240Z,27.83
2023-12-03T14:17:11.366Z,27.10
2023-12-03T14:19:59.818Z,27.92
2023-12-03T14:22:48.062Z,28.55
2023-12-03T14:25:38.954Z,29.20
2023-12-03T14:28:49.079Z,28.10
2023-12-03T14:32:37.600Z,26.95
2023-12-03T14:35:34.808Z,26.52
2023-12-03T14:38:33.779Z,25.55
2023-12-03T14:41:59.629Z,26.17
2023-12-03T14:45:08.958Z,25.60
2023-12-03T14:48:18.156Z,25.73
2023-12-03T14:54:41.325Z,24.45
2023-12-03T14:57:55.207Z,25.42
2023-12-03T15:01:13.179Z,26.92
2023-12-03T15:04:13.121Z,28.77
2023-12-03T15:07:29.887Z,26.67
2023-12-03T15:10:48.189Z,25.92
2023-12-03T15:14:07.707Z,26.38
2023-12-03T15:36:29.792Z,27.40
2023-12-03T15:39:22.225Z,26.83
2023-12-03T15:42:11.951Z,27.52
2023-12-03T15:45:03.163Z,28.92
2023-12-03T15:47:54.211Z,29.25
2023-12-03T15:50:42.640Z,28.90
2023-12-03T15:53:31.501Z,28.27
2023-12-03T15:56:20.391Z,28.83
2023-12-03T15:59:08.754Z,29.52
2023-12-03T16:01:57.092Z,29.20
2023-12-03T16:04:47.252Z,27.85
2023-12-03T16:07:35.988Z,29.23
2023-12-03T16:10:26.631Z,28.73
2023-12-03T16:13:17.739Z,29.50
2023-12-03T16:16:07.930Z,31.27
2023-12-03T16:18:56.375Z,30.50
2023-12-03T16:21:46.508Z,29.45
2023-12-03T16:24:35.256Z,31.02
2023-12-03T16:27:24.107Z,31.08
2023-12-03T16:30:14.869Z,32.28
2023-12-03T16:33:03.292Z,31.88
2023-12-03T16:35:52.069Z,31.40
2023-12-03T16:38:40.343Z,29.25
2023-12-03T16:41:35.538Z,29.77
2023-12-03T16:44:25.352Z,31.08
2023-12-03T16:47:13.697Z,29.70
2023-12-03T16:50:05.923Z,30.45
2023-12-03T16:52:54.495Z,31.65
2023-12-03T16:55:44.976Z,31.92
2023-12-03T16:58:33.425Z,30.80
2023-12-03T17:01:21.979Z,31.98
2023-12-03T17:04:10.117Z,31.05
2023-12-03T17:07:00.433Z,33.63
2023-12-03T17:09:51.383Z,33.35
2023-12-03T17:12:47.521Z,32.22
2023-12-03T17:15:39.670Z,31.08
2023-12-03T17:18:36.940Z,33.20
2023-12-03T17:21:34.841Z,33.03
2023-12-03T17:24:26.514Z,33.20
2023-12-03T17:27:15.865Z,33.50
2023-12-03T17:30:05.611Z,36.35
2023-12-03T17:32:54.221Z,34.55
2023-12-03T17:35:52.957Z,35.70
2023-12-03T17:38:41.691Z,35.60
2023-12-03T17:41:33.555Z,35.63
2023-12-03T17:44:22.676Z,36.38
2023-12-03T17:47:14.032Z,35.03
2023-12-03T17:50:03.585Z,37.05
2023-12-03T17:52:54.286Z,35.40
2023-12-03T17:55:42.621Z,35.78
2023-12-03T17:58:30.835Z,34.70
2023-12-03T18:01:26.264Z,35.55
2023-12-03T18:04:15.787Z,32.08
2023-12-03T18:07:10.581Z,32.13
2023-12-03T18:10:02.053Z,33.53
2023-12-03T18:12:54.291Z,35.55
2023-12-03T18:15:43.611Z,40.72
2023-12-03T18:18:32.113Z,36.10
2023-12-03T18:21:24.820Z,36.75
2023-12-03T18:24:27.176Z,32.50
2023-12-03T18:27:16.046Z,45.00
2023-12-03T18:30:08.952Z,48.35
2023-12-03T18:32:58.941Z,39.33
2023-12-03T18:35:52.346Z,42.33
2023-12-03T18:38:40.737Z,42.53
2023-12-03T18:41:29.039Z,40.17
2023-12-03T18:44:21.930Z,38.65
2023-12-03T18:47:10.521Z,39.05
2023-12-03T18:50:06.469Z,35.28
2023-12-03T18:52:55.701Z,37.33
2023-12-03T18:55:54.772Z,34.85
2023-12-03T18:58:45.975Z,37.38
2023-12-03T19:01:34.458Z,35.35
2023-12-03T19:04:23.591Z,32.97
2023-12-03T19:07:13.245Z,35.50
2023-12-03T19:10:03.945Z,34.63
2023-12-03T19:12:59.736Z,32.78
2023-12-03T19:15:56.580Z,32.63
2023-12-03T19:18:45.241Z,33.15
2023-12-03T19:21:36.899Z,33.42
2023-12-03T19:24:25.710Z,32.92
2023-12-03T19:27:16.587Z,32.83
2023-12-03T19:30:10.151Z,34.90
2023-12-03T19:33:04.263Z,33.75
2023-12-03T19:35:52.743Z,35.15
2023-12-03T19:38:40.943Z,32.92
2023-12-03T19:41:39.082Z,34.20
2023-12-03T19:44:28.432Z,35.75
2023-12-03T19:47:20.058Z,33.92
2023-12-03T19:50:12.654Z,33.78
2023-12-03T19:53:01.174Z,37.08
2023-12-03T19:55:49.721Z,35.17
2023-12-03T19:58:39.689Z,34.08
2023-12-03T20:01:27.922Z,32.45
2023-12-03T20:04:17.887Z,28.70
2023-12-03T20:07:09.225Z,26.00
2023-12-03T20:10:15.480Z,27.67
2023-12-03T20:13:05.059Z,26.95
2023-12-03T20:15:58.577Z,25.50
2023-12-03T20:18:48.098Z,26.65
2023-12-03T20:21:58.424Z,27.95
2023-12-03T20:25:07.262Z,28.63
2023-12-03T20:27:55.055Z,27.10
2023-12-03T20:30:43.701Z,27.67
2023-12-03T20:33:35.669Z,30.15
2023-12-03T20:36:29.734Z,29.13
2023-12-03T20:39:19.044Z,30.08
2023-12-03T20:42:10.361Z,29.63
2023-12-03T20:45:32.186Z,26.70
2023-12-03T20:48:58.445Z,26.65
2023-12-03T20:53:57.323Z,26.75
2023-12-03T20:59:46.907Z,27.58
2023-12-03T21:16:15.821Z,26.65
2023-12-03T21:19:08.337Z,26.27
2023-12-03T21:22:00.066Z,26.38
2023-12-03T21:24:55.611Z,28.25
2023-12-03T21:28:10.876Z,27.98
2023-12-03T21:31:14.439Z,28.15
2023-12-03T21:34:11.797Z,27.75
2023-12-03T21:37:01.563Z,27.88
2023-12-03T21:39:55.253Z,27.25
2023-12-03T21:45:35.562Z,28.40
2023-12-03T21:48:30.961Z,28.15
2023-12-03T21:51:31.768Z,27.50
2023-12-03T21:54:28.243Z,29.63
2023-12-03T21:57:22.001Z,27.02
2023-12-03T22:00:13.966Z,27.30
2023-12-03T22:03:06.539Z,28.80
2023-12-03T22:05:55.989Z,29.63
2023-12-03T22:08:50.406Z,27.08
2023-12-03T22:11:42.135Z,26.75
2023-12-03T22:14:32.935Z,26.50
2023-12-03T22:17:36.903Z,26.55
2023-12-03T22:20:27.997Z,27.80
2023-12-03T22:23:26.144Z,27.77
2023-12-03T22:26:20.564Z,26.35
2023-12-03T22:29:26.093Z,27.40
2023-12-03T22:32:20.709Z,27.70
2023-12-03T22:35:12.338Z,27.52
2023-12-03T22:38:03.174Z,28.73
2023-12-03T22:40:55.200Z,27.77
2023-12-03T22:43:49.601Z,27.13
2023-12-03T22:46:45.936Z,26.40
2023-12-03T22:49:38.158Z,25.98
2023-12-03T22:52:32.104Z,26.92
2023-12-03T22:55:22.327Z,27.42
2023-12-03T22:58:11.816Z,27.10
2023-12-03T23:01:06.518Z,25.67
2023-12-03T23:03:55.274Z,26.27
2023-12-03T23:06:46.662Z,27.77
2023-12-03T23:09:37.166Z,25.80
2023-12-03T23:12:26.329Z,27.35
2023-12-03T23:15:19.026Z,28.00
2023-12-03T23:18:10.304Z,28.30
2023-12-03T23:21:00.858Z,27.38
2023-12-03T23:23:51.293Z,28.58
2023-12-03T23:26:41.572Z,28.77
2023-12-03T23:29:31.172Z,30.10
2023-12-03T23:32:23.393Z,31.08
2023-12-03T23:35:11.737Z,29.30
2023-12-03T23:38:01.650Z,30.05
2023-12-03T23:40:50.099Z,30.13
2023-12-03T23:43:38.633Z,29.70
2023-12-03T23:46:27.297Z,29.60
2023-12-03T23:49:16.084Z,30.17
2023-12-03T23:52:05.646Z,27.75
2023-12-03T23:54:54.237Z,28.77
2023-12-03T23:57:43.262Z,27.85
